sensor_id;sensor_type;location;lat;lon;timestamp;P1;durP1;ratioP1;P2;durP2;ratioP2
69358;SDS011;56520;49.066;8.660;2023-08-17T00:01:25;3.20;;;1.10;;
69358;SDS011;56520;49.066;8.660;2023-08-17T00:03:50;2.75;;;1.10;;
69358;SDS011;56520;49.066;8.660;2023-08-17T00:06:16;3.97;;;1.10;;
69358;SDS011;56520;49.066;8.660;2023-08-17T00:08:41;3.42;;;1.05;;
69358;SDS011;56520;49.066;8.660;2023-08-17T00:11:07;3.15;;;1.20;;
69358;SDS011;56520;49.066;8.660;2023-08-17T00:13:33;3.38;;;1.10;;
69358;SDS011;56520;49.066;8.660;2023-08-17T00:15:59;3.20;;;1.08;;
69358;SDS011;56520;49.066;8.660;2023-08-17T00:18:24;2.95;;;0.85;;
69358;SDS011;56520;49.066;8.660;2023-08-17T00:20:50;2.40;;;0.93;;
69358;SDS011;56520;49.066;8.660;2023-08-17T00:23:15;2.67;;;0.95;;
69358;SDS011;56520;49.066;8.660;2023-08-17T00:25:41;2.45;;;0.82;;
69358;SDS011;56520;49.066;8.660;2023-08-17T00:28:06;3.47;;;1.00;;
69358;SDS011;56520;49.066;8.660;2023-08-17T00:30:31;2.42;;;0.80;;
69358;SDS011;56520;49.066;8.660;2023-08-17T00:33:00;2.55;;;0.80;;
69358;SDS011;56520;49.066;8.660;2023-08-17T00:35:26;2.20;;;0.80;;
69358;SDS011;56520;49.066;8.660;2023-08-17T00:37:52;2.75;;;1.10;;
69358;SDS011;56520;49.066;8.660;2023-08-17T00:40:20;2.25;;;0.85;;
69358;SDS011;56520;49.066;8.660;2023-08-17T00:42:45;3.00;;;1.00;;
69358;SDS011;56520;49.066;8.660;2023-08-17T00:45:11;3.38;;;1.13;;
69358;SDS011;56520;49.066;8.660;2023-08-17T00:47:36;4.18;;;1.40;;
69358;SDS011;56520;49.066;8.660;2023-08-17T00:50:02;3.67;;;1.23;;
69358;SDS011;56520;49.066;8.660;2023-08-17T00:52:28;4.47;;;1.20;;
69358;SDS011;56520;49.066;8.660;2023-08-17T00:54:57;2.95;;;1.00;;
69358;SDS011;56520;49.066;8.660;2023-08-17T00:57:23;2.08;;;0.90;;
69358;SDS011;56520;49.066;8.660;2023-08-17T00:59:51;2.22;;;0.90;;
69358;SDS011;56520;49.066;8.660;2023-08-17T01:02:17;3.08;;;1.00;;
69358;SDS011;56520;49.066;8.660;2023-08-17T01:04:43;3.65;;;1.10;;
69358;SDS011;56520;49.066;8.660;2023-08-17T01:07:09;2.30;;;0.80;;
69358;SDS011;56520;49.066;8.660;2023-08-17T01:09:34;2.63;;;1.10;;
69358;SDS011;56520;49.066;8.660;2023-08-17T01:12:05;2.75;;;0.98;;
69358;SDS011;56520;49.066;8.660;2023-08-17T01:17:22;2.22;;;0.82;;
69358;SDS011;56520;49.066;8.660;2023-08-17T01:19:54;3.28;;;1.00;;
69358;SDS011;56520;49.066;8.660;2023-08-17T01:22:21;2.60;;;1.05;;
69358;SDS011;56520;49.066;8.660;2023-08-17T01:24:47;1.75;;;0.77;;
69358;SDS011;56520;49.066;8.660;2023-08-17T01:27:13;3.03;;;1.00;;
69358;SDS011;56520;49.066;8.660;2023-08-17T01:29:38;4.07;;;1.00;;
69358;SDS011;56520;49.066;8.660;2023-08-17T01:32:18;2.10;;;0.88;;
69358;SDS011;56520;49.066;8.660;2023-08-17T01:34:57;2.75;;;1.10;;
69358;SDS011;56520;49.066;8.660;2023-08-17T01:37:26;3.17;;;1.20;;
69358;SDS011;56520;49.066;8.660;2023-08-17T01:39:54;3.67;;;1.20;;
69358;SDS011;56520;49.066;8.660;2023-08-17T01:42:21;3.95;;;1.20;;
69358;SDS011;56520;49.066;8.660;2023-08-17T01:44:47;3.63;;;1.15;;
69358;SDS011;56520;49.066;8.660;2023-08-17T01:47:12;5.30;;;1.23;;
69358;SDS011;56520;49.066;8.660;2023-08-17T01:49:38;4.10;;;1.17;;
69358;SDS011;56520;49.066;8.660;2023-08-17T01:52:04;2.78;;;1.00;;
69358;SDS011;56520;49.066;8.660;2023-08-17T01:54:29;1.95;;;0.88;;
69358;SDS011;56520;49.066;8.660;2023-08-17T01:56:55;3.72;;;1.20;;
69358;SDS011;56520;49.066;8.660;2023-08-17T01:59:20;4.30;;;1.30;;
69358;SDS011;56520;49.066;8.660;2023-08-17T02:01:46;4.95;;;1.20;;
69358;SDS011;56520;49.066;8.660;2023-08-17T02:04:11;2.80;;;0.90;;
69358;SDS011;56520;49.066;8.660;2023-08-17T02:06:36;3.20;;;1.00;;
69358;SDS011;56520;49.066;8.660;2023-08-17T02:09:02;4.90;;;1.30;;
69358;SDS011;56520;49.066;8.660;2023-08-17T02:11:27;2.60;;;1.02;;
69358;SDS011;56520;49.066;8.660;2023-08-17T02:13:53;3.10;;;0.88;;
69358;SDS011;56520;49.066;8.660;2023-08-17T02:16:18;3.80;;;1.30;;
69358;SDS011;56520;49.066;8.660;2023-08-17T02:18:43;2.20;;;1.00;;
69358;SDS011;56520;49.066;8.660;2023-08-17T02:21:09;1.90;;;0.90;;
69358;SDS011;56520;49.066;8.660;2023-08-17T02:23:34;3.08;;;1.10;;
69358;SDS011;56520;49.066;8.660;2023-08-17T02:26:00;4.13;;;1.33;;
69358;SDS011;56520;49.066;8.660;2023-08-17T02:28:25;3.53;;;1.27;;
69358;SDS011;56520;49.066;8.660;2023-08-17T02:30:54;1.98;;;0.80;;
69358;SDS011;56520;49.066;8.660;2023-08-17T02:33:23;2.42;;;0.90;;
69358;SDS011;56520;49.066;8.660;2023-08-17T02:35:49;3.03;;;0.90;;
69358;SDS011;56520;49.066;8.660;2023-08-17T02:38:15;2.65;;;0.90;;
69358;SDS011;56520;49.066;8.660;2023-08-17T02:40:40;4.13;;;1.00;;
69358;SDS011;56520;49.066;8.660;2023-08-17T02:43:06;2.35;;;0.98;;
69358;SDS011;56520;49.066;8.660;2023-08-17T02:45:31;4.22;;;1.20;;
69358;SDS011;56520;49.066;8.660;2023-08-17T02:47:58;2.35;;;1.00;;
69358;SDS011;56520;49.066;8.660;2023-08-17T02:50:24;3.70;;;1.25;;
69358;SDS011;56520;49.066;8.660;2023-08-17T02:52:49;3.42;;;1.00;;
69358;SDS011;56520;49.066;8.660;2023-08-17T02:55:15;3.50;;;1.08;;
69358;SDS011;56520;49.066;8.660;2023-08-17T02:57:40;2.60;;;0.90;;
69358;SDS011;56520;49.066;8.660;2023-08-17T03:00:06;3.13;;;1.35;;
69358;SDS011;56520;49.066;8.660;2023-08-17T03:02:33;3.28;;;1.10;;
69358;SDS011;56520;49.066;8.660;2023-08-17T03:04:59;3.70;;;0.95;;
69358;SDS011;56520;49.066;8.660;2023-08-17T03:07:24;2.72;;;0.98;;
69358;SDS011;56520;49.066;8.660;2023-08-17T03:09:50;2.55;;;0.90;;
69358;SDS011;56520;49.066;8.660;2023-08-17T03:12:15;2.35;;;0.80;;
69358;SDS011;56520;49.066;8.660;2023-08-17T03:14:40;2.67;;;1.00;;
69358;SDS011;56520;49.066;8.660;2023-08-17T03:17:06;2.63;;;0.88;;
69358;SDS011;56520;49.066;8.660;2023-08-17T03:19:31;2.67;;;0.90;;
69358;SDS011;56520;49.066;8.660;2023-08-17T03:21:56;2.70;;;1.00;;
69358;SDS011;56520;49.066;8.660;2023-08-17T03:24:22;2.10;;;0.70;;
69358;SDS011;56520;49.066;8.660;2023-08-17T03:26:47;2.03;;;0.80;;
69358;SDS011;56520;49.066;8.660;2023-08-17T03:29:12;3.05;;;0.90;;
69358;SDS011;56520;49.066;8.660;2023-08-17T03:31:38;1.90;;;0.60;;
69358;SDS011;56520;49.066;8.660;2023-08-17T03:34:03;2.85;;;1.00;;
69358;SDS011;56520;49.066;8.660;2023-08-17T03:36:29;2.00;;;0.80;;
69358;SDS011;56520;49.066;8.660;2023-08-17T03:38:54;1.77;;;0.82;;
69358;SDS011;56520;49.066;8.660;2023-08-17T03:41:21;1.50;;;0.57;;
69358;SDS011;56520;49.066;8.660;2023-08-17T03:43:48;2.78;;;1.00;;
69358;SDS011;56520;49.066;8.660;2023-08-17T03:46:14;2.17;;;0.95;;
69358;SDS011;56520;49.066;8.660;2023-08-17T03:48:39;2.22;;;0.80;;
69358;SDS011;56520;49.066;8.660;2023-08-17T03:51:05;2.10;;;0.95;;
69358;SDS011;56520;49.066;8.660;2023-08-17T03:53:30;2.63;;;1.00;;
69358;SDS011;56520;49.066;8.660;2023-08-17T03:55:55;2.25;;;0.80;;
69358;SDS011;56520;49.066;8.660;2023-08-17T03:58:23;1.83;;;0.70;;
69358;SDS011;56520;49.066;8.660;2023-08-17T04:00:51;2.03;;;0.77;;
69358;SDS011;56520;49.066;8.660;2023-08-17T04:03:18;2.15;;;1.00;;
69358;SDS011;56520;49.066;8.660;2023-08-17T04:05:44;1.58;;;0.70;;
69358;SDS011;56520;49.066;8.660;2023-08-17T04:08:12;2.22;;;0.82;;
69358;SDS011;56520;49.066;8.660;2023-08-17T04:10:38;2.45;;;0.95;;
69358;SDS011;56520;49.066;8.660;2023-08-17T04:13:04;2.72;;;0.90;;
69358;SDS011;56520;49.066;8.660;2023-08-17T04:15:29;2.60;;;0.90;;
69358;SDS011;56520;49.066;8.660;2023-08-17T04:17:55;2.25;;;0.80;;
69358;SDS011;56520;49.066;8.660;2023-08-17T04:20:20;1.95;;;0.88;;
69358;SDS011;56520;49.066;8.660;2023-08-17T04:22:46;2.15;;;0.77;;
69358;SDS011;56520;49.066;8.660;2023-08-17T04:25:12;2.75;;;0.82;;
69358;SDS011;56520;49.066;8.660;2023-08-17T04:27:38;3.17;;;1.00;;
69358;SDS011;56520;49.066;8.660;2023-08-17T04:30:03;2.85;;;1.20;;
69358;SDS011;56520;49.066;8.660;2023-08-17T04:32:32;3.65;;;1.25;;
69358;SDS011;56520;49.066;8.660;2023-08-17T04:34:57;3.00;;;1.10;;
69358;SDS011;56520;49.066;8.660;2023-08-17T04:37:23;2.85;;;0.95;;
69358;SDS011;56520;49.066;8.660;2023-08-17T04:39:48;3.13;;;1.00;;
69358;SDS011;56520;49.066;8.660;2023-08-17T04:42:14;2.58;;;1.00;;
69358;SDS011;56520;49.066;8.660;2023-08-17T04:44:39;4.20;;;1.10;;
69358;SDS011;56520;49.066;8.660;2023-08-17T04:47:05;3.58;;;1.20;;
69358;SDS011;56520;49.066;8.660;2023-08-17T04:49:30;4.53;;;1.50;;
69358;SDS011;56520;49.066;8.660;2023-08-17T04:51:56;4.25;;;1.35;;
69358;SDS011;56520;49.066;8.660;2023-08-17T04:54:21;3.78;;;1.20;;
69358;SDS011;56520;49.066;8.660;2023-08-17T04:56:47;2.08;;;0.85;;
69358;SDS011;56520;49.066;8.660;2023-08-17T04:59:12;3.35;;;1.17;;
69358;SDS011;56520;49.066;8.660;2023-08-17T05:01:40;2.35;;;1.00;;
69358;SDS011;56520;49.066;8.660;2023-08-17T05:04:05;2.17;;;0.82;;
69358;SDS011;56520;49.066;8.660;2023-08-17T05:06:30;2.40;;;0.95;;
69358;SDS011;56520;49.066;8.660;2023-08-17T05:08:56;3.40;;;1.10;;
69358;SDS011;56520;49.066;8.660;2023-08-17T05:11:22;4.05;;;1.40;;
69358;SDS011;56520;49.066;8.660;2023-08-17T05:13:48;3.45;;;1.27;;
69358;SDS011;56520;49.066;8.660;2023-08-17T05:16:14;3.53;;;1.10;;
69358;SDS011;56520;49.066;8.660;2023-08-17T05:18:39;3.78;;;1.30;;
69358;SDS011;56520;49.066;8.660;2023-08-17T05:21:05;3.88;;;1.20;;
69358;SDS011;56520;49.066;8.660;2023-08-17T05:23:32;3.47;;;1.10;;
69358;SDS011;56520;49.066;8.660;2023-08-17T05:25:58;3.67;;;1.30;;
69358;SDS011;56520;49.066;8.660;2023-08-17T05:28:23;3.55;;;1.40;;
69358;SDS011;56520;49.066;8.660;2023-08-17T05:30:49;4.22;;;1.45;;
69358;SDS011;56520;49.066;8.660;2023-08-17T05:33:15;4.38;;;1.35;;
69358;SDS011;56520;49.066;8.660;2023-08-17T05:35:40;5.18;;;1.50;;
69358;SDS011;56520;49.066;8.660;2023-08-17T05:38:07;4.60;;;1.50;;
69358;SDS011;56520;49.066;8.660;2023-08-17T05:40:33;5.22;;;1.45;;
69358;SDS011;56520;49.066;8.660;2023-08-17T05:42:59;4.50;;;1.55;;
69358;SDS011;56520;49.066;8.660;2023-08-17T05:45:24;4.55;;;1.40;;
69358;SDS011;56520;49.066;8.660;2023-08-17T05:47:50;3.80;;;1.30;;
69358;SDS011;56520;49.066;8.660;2023-08-17T05:50:15;4.40;;;1.27;;
69358;SDS011;56520;49.066;8.660;2023-08-17T05:52:41;5.75;;;1.50;;
69358;SDS011;56520;49.066;8.660;2023-08-17T05:55:06;5.00;;;1.67;;
69358;SDS011;56520;49.066;8.660;2023-08-17T05:57:32;3.95;;;1.50;;
69358;SDS011;56520;49.066;8.660;2023-08-17T05:59:57;4.28;;;1.48;;
69358;SDS011;56520;49.066;8.660;2023-08-17T06:02:23;5.30;;;1.70;;
69358;SDS011;56520;49.066;8.660;2023-08-17T06:04:48;4.05;;;1.25;;
69358;SDS011;56520;49.066;8.660;2023-08-17T06:07:14;4.30;;;1.27;;
69358;SDS011;56520;49.066;8.660;2023-08-17T06:09:39;5.03;;;1.42;;
69358;SDS011;56520;49.066;8.660;2023-08-17T06:12:05;5.18;;;1.85;;
69358;SDS011;56520;49.066;8.660;2023-08-17T06:14:31;4.43;;;1.27;;
69358;SDS011;56520;49.066;8.660;2023-08-17T06:16:57;4.22;;;1.48;;
69358;SDS011;56520;49.066;8.660;2023-08-17T06:19:23;5.15;;;1.70;;
69358;SDS011;56520;49.066;8.660;2023-08-17T06:21:49;7.57;;;2.25;;
69358;SDS011;56520;49.066;8.660;2023-08-17T06:24:14;6.22;;;1.75;;
69358;SDS011;56520;49.066;8.660;2023-08-17T06:26:40;8.40;;;2.38;;
69358;SDS011;56520;49.066;8.660;2023-08-17T06:29:05;8.05;;;2.50;;
69358;SDS011;56520;49.066;8.660;2023-08-17T06:31:30;5.15;;;1.73;;
69358;SDS011;56520;49.066;8.660;2023-08-17T06:33:56;4.32;;;1.30;;
69358;SDS011;56520;49.066;8.660;2023-08-17T06:36:22;5.50;;;1.80;;
69358;SDS011;56520;49.066;8.660;2023-08-17T06:38:47;5.85;;;1.90;;
69358;SDS011;56520;49.066;8.660;2023-08-17T06:41:13;5.72;;;1.80;;
69358;SDS011;56520;49.066;8.660;2023-08-17T06:43:38;5.20;;;1.70;;
69358;SDS011;56520;49.066;8.660;2023-08-17T06:46:04;5.68;;;1.70;;
69358;SDS011;56520;49.066;8.660;2023-08-17T06:48:29;5.22;;;1.55;;
69358;SDS011;56520;49.066;8.660;2023-08-17T06:50:56;3.80;;;1.30;;
69358;SDS011;56520;49.066;8.660;2023-08-17T06:53:22;5.80;;;1.90;;
69358;SDS011;56520;49.066;8.660;2023-08-17T06:55:47;6.97;;;2.25;;
69358;SDS011;56520;49.066;8.660;2023-08-17T06:58:12;7.13;;;1.83;;
69358;SDS011;56520;49.066;8.660;2023-08-17T07:00:38;4.78;;;1.70;;
69358;SDS011;56520;49.066;8.660;2023-08-17T07:03:08;5.32;;;1.63;;
69358;SDS011;56520;49.066;8.660;2023-08-17T07:05:33;5.88;;;2.10;;
69358;SDS011;56520;49.066;8.660;2023-08-17T07:07:59;6.13;;;2.13;;
69358;SDS011;56520;49.066;8.660;2023-08-17T07:10:27;8.80;;;2.00;;
69358;SDS011;56520;49.066;8.660;2023-08-17T07:12:52;5.82;;;1.67;;
69358;SDS011;56520;49.066;8.660;2023-08-17T07:15:18;5.53;;;1.88;;
69358;SDS011;56520;49.066;8.660;2023-08-17T07:17:43;5.25;;;1.75;;
69358;SDS011;56520;49.066;8.660;2023-08-17T07:20:09;6.63;;;1.90;;
69358;SDS011;56520;49.066;8.660;2023-08-17T07:22:36;5.70;;;2.17;;
69358;SDS011;56520;49.066;8.660;2023-08-17T07:25:02;5.00;;;1.80;;
69358;SDS011;56520;49.066;8.660;2023-08-17T07:27:28;4.35;;;1.60;;
69358;SDS011;56520;49.066;8.660;2023-08-17T07:29:54;5.80;;;2.00;;
69358;SDS011;56520;49.066;8.660;2023-08-17T07:32:19;5.80;;;2.10;;
69358;SDS011;56520;49.066;8.660;2023-08-17T07:34:46;8.95;;;2.40;;
69358;SDS011;56520;49.066;8.660;2023-08-17T07:37:11;5.35;;;2.00;;
69358;SDS011;56520;49.066;8.660;2023-08-17T07:39:37;6.25;;;2.25;;
69358;SDS011;56520;49.066;8.660;2023-08-17T07:42:02;6.38;;;2.53;;
69358;SDS011;56520;49.066;8.660;2023-08-17T07:44:28;5.65;;;2.20;;
69358;SDS011;56520;49.066;8.660;2023-08-17T07:46:53;5.57;;;2.00;;
69358;SDS011;56520;49.066;8.660;2023-08-17T07:49:19;7.63;;;2.97;;
69358;SDS011;56520;49.066;8.660;2023-08-17T07:51:45;6.75;;;2.70;;
69358;SDS011;56520;49.066;8.660;2023-08-17T07:54:10;5.47;;;2.03;;
69358;SDS011;56520;49.066;8.660;2023-08-17T07:56:36;6.15;;;1.90;;
69358;SDS011;56520;49.066;8.660;2023-08-17T07:59:01;5.68;;;2.35;;
69358;SDS011;56520;49.066;8.660;2023-08-17T08:01:27;6.70;;;2.45;;
69358;SDS011;56520;49.066;8.660;2023-08-17T08:03:53;8.40;;;3.08;;
69358;SDS011;56520;49.066;8.660;2023-08-17T08:06:18;8.85;;;3.53;;
69358;SDS011;56520;49.066;8.660;2023-08-17T08:08:45;7.07;;;2.90;;
69358;SDS011;56520;49.066;8.660;2023-08-17T08:11:11;6.38;;;2.65;;
69358;SDS011;56520;49.066;8.660;2023-08-17T08:13:36;9.43;;;3.05;;
69358;SDS011;56520;49.066;8.660;2023-08-17T08:16:02;5.97;;;2.30;;
69358;SDS011;56520;49.066;8.660;2023-08-17T08:18:27;6.57;;;2.90;;
69358;SDS011;56520;49.066;8.660;2023-08-17T08:20:53;6.45;;;2.50;;
69358;SDS011;56520;49.066;8.660;2023-08-17T08:23:18;5.78;;;2.65;;
69358;SDS011;56520;49.066;8.660;2023-08-17T08:25:44;9.32;;;3.25;;
69358;SDS011;56520;49.066;8.660;2023-08-17T08:28:09;6.55;;;2.45;;
69358;SDS011;56520;49.066;8.660;2023-08-17T08:30:35;8.07;;;2.63;;
69358;SDS011;56520;49.066;8.660;2023-08-17T08:33:01;8.38;;;3.10;;
69358;SDS011;56520;49.066;8.660;2023-08-17T08:35:27;6.47;;;2.70;;
69358;SDS011;56520;49.066;8.660;2023-08-17T08:37:54;7.38;;;3.03;;
69358;SDS011;56520;49.066;8.660;2023-08-17T08:40:20;7.35;;;3.10;;
69358;SDS011;56520;49.066;8.660;2023-08-17T08:42:56;6.97;;;3.03;;
69358;SDS011;56520;49.066;8.660;2023-08-17T08:45:22;7.40;;;3.13;;
69358;SDS011;56520;49.066;8.660;2023-08-17T08:47:49;6.60;;;2.78;;
69358;SDS011;56520;49.066;8.660;2023-08-17T08:50:19;7.47;;;3.17;;
69358;SDS011;56520;49.066;8.660;2023-08-17T08:55:29;6.68;;;2.58;;
69358;SDS011;56520;49.066;8.660;2023-08-17T08:57:58;7.28;;;2.90;;
69358;SDS011;56520;49.066;8.660;2023-08-17T09:00:24;7.22;;;3.50;;
69358;SDS011;56520;49.066;8.660;2023-08-17T09:02:50;7.72;;;3.00;;
69358;SDS011;56520;49.066;8.660;2023-08-17T09:05:16;6.82;;;3.03;;
69358;SDS011;56520;49.066;8.660;2023-08-17T09:07:42;6.57;;;3.00;;
69358;SDS011;56520;49.066;8.660;2023-08-17T09:10:09;8.23;;;3.05;;
69358;SDS011;56520;49.066;8.660;2023-08-17T09:12:35;8.23;;;3.50;;
69358;SDS011;56520;49.066;8.660;2023-08-17T09:15:00;6.78;;;2.83;;
69358;SDS011;56520;49.066;8.660;2023-08-17T09:17:26;6.32;;;2.85;;
69358;SDS011;56520;49.066;8.660;2023-08-17T09:19:52;6.80;;;2.78;;
69358;SDS011;56520;49.066;8.660;2023-08-17T09:22:24;7.75;;;2.80;;
69358;SDS011;56520;49.066;8.660;2023-08-17T09:24:50;6.22;;;2.72;;
69358;SDS011;56520;49.066;8.660;2023-08-17T09:27:16;5.43;;;2.15;;
69358;SDS011;56520;49.066;8.660;2023-08-17T09:29:42;6.00;;;2.45;;
69358;SDS011;56520;49.066;8.660;2023-08-17T09:32:10;7.07;;;2.63;;
69358;SDS011;56520;49.066;8.660;2023-08-17T09:34:36;6.57;;;2.80;;
69358;SDS011;56520;49.066;8.660;2023-08-17T09:37:02;6.65;;;3.08;;
69358;SDS011;56520;49.066;8.660;2023-08-17T09:39:29;7.10;;;3.15;;
69358;SDS011;56520;49.066;8.660;2023-08-17T09:41:55;6.30;;;2.70;;
69358;SDS011;56520;49.066;8.660;2023-08-17T09:44:20;6.35;;;3.10;;
69358;SDS011;56520;49.066;8.660;2023-08-17T09:46:46;7.68;;;2.90;;
69358;SDS011;56520;49.066;8.660;2023-08-17T09:49:12;6.95;;;2.70;;
69358;SDS011;56520;49.066;8.660;2023-08-17T09:51:39;6.22;;;2.05;;
69358;SDS011;56520;49.066;8.660;2023-08-17T09:54:07;6.60;;;2.58;;
69358;SDS011;56520;49.066;8.660;2023-08-17T09:56:33;6.78;;;2.80;;
69358;SDS011;56520;49.066;8.660;2023-08-17T09:58:59;8.25;;;2.47;;
69358;SDS011;56520;49.066;8.660;2023-08-17T10:01:24;7.57;;;2.88;;
69358;SDS011;56520;49.066;8.660;2023-08-17T10:03:53;6.78;;;3.15;;
69358;SDS011;56520;49.066;8.660;2023-08-17T10:06:22;6.43;;;2.80;;
69358;SDS011;56520;49.066;8.660;2023-08-17T10:08:50;7.15;;;3.13;;
69358;SDS011;56520;49.066;8.660;2023-08-17T10:11:19;6.78;;;2.88;;
69358;SDS011;56520;49.066;8.660;2023-08-17T10:13:51;6.78;;;2.72;;
69358;SDS011;56520;49.066;8.660;2023-08-17T10:16:22;5.97;;;2.55;;
69358;SDS011;56520;49.066;8.660;2023-08-17T10:19:13;5.82;;;2.42;;
69358;SDS011;56520;49.066;8.660;2023-08-17T10:24:37;5.90;;;2.47;;
69358;SDS011;56520;49.066;8.660;2023-08-17T10:27:04;6.57;;;2.97;;
69358;SDS011;56520;49.066;8.660;2023-08-17T10:29:33;6.43;;;2.70;;
69358;SDS011;56520;49.066;8.660;2023-08-17T10:32:00;7.07;;;2.75;;
69358;SDS011;56520;49.066;8.660;2023-08-17T10:34:26;5.43;;;2.63;;
69358;SDS011;56520;49.066;8.660;2023-08-17T10:36:53;7.15;;;2.90;;
69358;SDS011;56520;49.066;8.660;2023-08-17T10:41:50;6.68;;;3.08;;
69358;SDS011;56520;49.066;8.660;2023-08-17T10:49:47;8.05;;;3.60;;
69358;SDS011;56520;49.066;8.660;2023-08-17T10:52:35;7.07;;;3.58;;
69358;SDS011;56520;49.066;8.660;2023-08-17T10:55:08;7.45;;;3.63;;
69358;SDS011;56520;49.066;8.660;2023-08-17T10:57:37;7.70;;;2.97;;
69358;SDS011;56520;49.066;8.660;2023-08-17T11:02:40;9.38;;;3.28;;
69358;SDS011;56520;49.066;8.660;2023-08-17T11:05:09;6.95;;;3.33;;
69358;SDS011;56520;49.066;8.660;2023-08-17T11:07:40;6.95;;;3.67;;
69358;SDS011;56520;49.066;8.660;2023-08-17T11:10:49;8.50;;;4.03;;
69358;SDS011;56520;49.066;8.660;2023-08-17T11:12:56;6.43;;;3.53;;
69358;SDS011;56520;49.066;8.660;2023-08-17T11:15:45;7.10;;;3.88;;
69358;SDS011;56520;49.066;8.660;2023-08-17T11:18:10;7.28;;;3.40;;
69358;SDS011;56520;49.066;8.660;2023-08-17T11:20:37;6.65;;;3.45;;
69358;SDS011;56520;49.066;8.660;2023-08-17T11:23:08;7.38;;;3.75;;
69358;SDS011;56520;49.066;8.660;2023-08-17T11:25:34;8.13;;;3.63;;
69358;SDS011;56520;49.066;8.660;2023-08-17T11:28:01;6.78;;;3.33;;
69358;SDS011;56520;49.066;8.660;2023-08-17T11:30:28;6.90;;;3.55;;
69358;SDS011;56520;49.066;8.660;2023-08-17T11:32:54;6.75;;;3.45;;
69358;SDS011;56520;49.066;8.660;2023-08-17T11:35:20;7.35;;;3.88;;
69358;SDS011;56520;49.066;8.660;2023-08-17T11:37:46;7.60;;;3.55;;
69358;SDS011;56520;49.066;8.660;2023-08-17T11:40:16;7.97;;;3.50;;
69358;SDS011;56520;49.066;8.660;2023-08-17T11:42:42;7.05;;;3.72;;
69358;SDS011;56520;49.066;8.660;2023-08-17T11:45:08;6.90;;;3.10;;
69358;SDS011;56520;49.066;8.660;2023-08-17T11:47:34;6.40;;;3.25;;
69358;SDS011;56520;49.066;8.660;2023-08-17T11:50:00;7.28;;;3.65;;
69358;SDS011;56520;49.066;8.660;2023-08-17T11:52:30;7.28;;;3.20;;
69358;SDS011;56520;49.066;8.660;2023-08-17T11:54:59;6.40;;;3.30;;
69358;SDS011;56520;49.066;8.660;2023-08-17T11:57:25;5.90;;;3.10;;
69358;SDS011;56520;49.066;8.660;2023-08-17T11:59:57;7.30;;;3.47;;
69358;SDS011;56520;49.066;8.660;2023-08-17T12:02:24;7.65;;;3.55;;
69358;SDS011;56520;49.066;8.660;2023-08-17T12:04:51;6.43;;;3.03;;
69358;SDS011;56520;49.066;8.660;2023-08-17T12:07:23;6.65;;;3.28;;
69358;SDS011;56520;49.066;8.660;2023-08-17T12:09:49;7.45;;;3.55;;
69358;SDS011;56520;49.066;8.660;2023-08-17T12:12:19;7.47;;;3.70;;
69358;SDS011;56520;49.066;8.660;2023-08-17T12:14:48;7.82;;;4.10;;
69358;SDS011;56520;49.066;8.660;2023-08-17T12:17:14;7.43;;;3.88;;
69358;SDS011;56520;49.066;8.660;2023-08-17T12:19:41;8.18;;;4.07;;
69358;SDS011;56520;49.066;8.660;2023-08-17T12:22:07;7.50;;;3.75;;
69358;SDS011;56520;49.066;8.660;2023-08-17T12:24:32;8.27;;;3.90;;
69358;SDS011;56520;49.066;8.660;2023-08-17T12:26:59;7.47;;;3.60;;
69358;SDS011;56520;49.066;8.660;2023-08-17T12:29:24;7.90;;;3.88;;
69358;SDS011;56520;49.066;8.660;2023-08-17T12:31:51;9.38;;;4.30;;
69358;SDS011;56520;49.066;8.660;2023-08-17T12:34:17;8.07;;;4.10;;
69358;SDS011;56520;49.066;8.660;2023-08-17T12:36:43;9.52;;;4.70;;
69358;SDS011;56520;49.066;8.660;2023-08-17T12:39:11;9.20;;;4.25;;
69358;SDS011;56520;49.066;8.660;2023-08-17T12:41:37;7.28;;;3.53;;
69358;SDS011;56520;49.066;8.660;2023-08-17T12:44:02;8.52;;;4.53;;
69358;SDS011;56520;49.066;8.660;2023-08-17T12:46:28;6.82;;;3.63;;
69358;SDS011;56520;49.066;8.660;2023-08-17T12:48:57;7.22;;;3.85;;
69358;SDS011;56520;49.066;8.660;2023-08-17T12:51:23;6.90;;;3.03;;
69358;SDS011;56520;49.066;8.660;2023-08-17T12:53:48;7.93;;;4.00;;
69358;SDS011;56520;49.066;8.660;2023-08-17T12:56:14;8.23;;;4.15;;
69358;SDS011;56520;49.066;8.660;2023-08-17T12:58:39;9.02;;;3.90;;
69358;SDS011;56520;49.066;8.660;2023-08-17T13:01:05;8.55;;;3.90;;
69358;SDS011;56520;49.066;8.660;2023-08-17T13:03:30;7.78;;;4.13;;
69358;SDS011;56520;49.066;8.660;2023-08-17T13:05:55;7.15;;;4.10;;
69358;SDS011;56520;49.066;8.660;2023-08-17T13:08:21;8.75;;;4.38;;
69358;SDS011;56520;49.066;8.660;2023-08-17T13:10:47;7.82;;;4.40;;
69358;SDS011;56520;49.066;8.660;2023-08-17T13:13:12;8.43;;;4.70;;
69358;SDS011;56520;49.066;8.660;2023-08-17T13:15:37;7.07;;;3.83;;
69358;SDS011;56520;49.066;8.660;2023-08-17T13:18:03;8.25;;;4.05;;
69358;SDS011;56520;49.066;8.660;2023-08-17T13:20:28;7.57;;;4.35;;
69358;SDS011;56520;49.066;8.660;2023-08-17T13:22:54;8.20;;;4.18;;
69358;SDS011;56520;49.066;8.660;2023-08-17T13:25:19;7.60;;;4.03;;
69358;SDS011;56520;49.066;8.660;2023-08-17T13:27:45;7.70;;;4.50;;
69358;SDS011;56520;49.066;8.660;2023-08-17T13:30:10;7.65;;;4.20;;
69358;SDS011;56520;49.066;8.660;2023-08-17T13:32:36;8.45;;;4.45;;
69358;SDS011;56520;49.066;8.660;2023-08-17T13:35:02;7.90;;;3.92;;
69358;SDS011;56520;49.066;8.660;2023-08-17T13:37:28;7.82;;;4.50;;
69358;SDS011;56520;49.066;8.660;2023-08-17T13:39:53;7.25;;;4.13;;
69358;SDS011;56520;49.066;8.660;2023-08-17T13:42:19;7.93;;;4.07;;
69358;SDS011;56520;49.066;8.660;2023-08-17T13:44:45;8.80;;;4.93;;
69358;SDS011;56520;49.066;8.660;2023-08-17T13:47:10;7.53;;;4.47;;
69358;SDS011;56520;49.066;8.660;2023-08-17T13:49:36;9.65;;;4.43;;
69358;SDS011;56520;49.066;8.660;2023-08-17T13:52:01;8.55;;;4.43;;
69358;SDS011;56520;49.066;8.660;2023-08-17T13:54:27;8.35;;;4.28;;
69358;SDS011;56520;49.066;8.660;2023-08-17T13:56:53;8.88;;;3.90;;
69358;SDS011;56520;49.066;8.660;2023-08-17T13:59:21;8.55;;;4.35;;
69358;SDS011;56520;49.066;8.660;2023-08-17T14:01:46;8.27;;;4.32;;
69358;SDS011;56520;49.066;8.660;2023-08-17T14:04:12;7.32;;;3.85;;
69358;SDS011;56520;49.066;8.660;2023-08-17T14:06:40;7.78;;;4.35;;
69358;SDS011;56520;49.066;8.660;2023-08-17T14:09:06;8.63;;;4.53;;
69358;SDS011;56520;49.066;8.660;2023-08-17T14:11:31;7.50;;;4.30;;
69358;SDS011;56520;49.066;8.660;2023-08-17T14:13:57;8.98;;;5.03;;
69358;SDS011;56520;49.066;8.660;2023-08-17T14:16:22;7.28;;;4.20;;
69358;SDS011;56520;49.066;8.660;2023-08-17T14:18:48;7.90;;;4.45;;
69358;SDS011;56520;49.066;8.660;2023-08-17T14:21:13;7.40;;;4.32;;
69358;SDS011;56520;49.066;8.660;2023-08-17T14:23:39;8.20;;;4.13;;
69358;SDS011;56520;49.066;8.660;2023-08-17T14:26:05;8.45;;;4.47;;
69358;SDS011;56520;49.066;8.660;2023-08-17T14:28:30;8.40;;;4.63;;
69358;SDS011;56520;49.066;8.660;2023-08-17T14:30:56;8.35;;;4.45;;
69358;SDS011;56520;49.066;8.660;2023-08-17T14:33:21;8.45;;;4.72;;
69358;SDS011;56520;49.066;8.660;2023-08-17T14:35:46;8.35;;;4.25;;
69358;SDS011;56520;49.066;8.660;2023-08-17T14:38:12;8.63;;;4.65;;
69358;SDS011;56520;49.066;8.660;2023-08-17T14:40:44;7.28;;;4.03;;
69358;SDS011;56520;49.066;8.660;2023-08-17T14:43:13;7.43;;;4.00;;
69358;SDS011;56520;49.066;8.660;2023-08-17T14:45:42;8.10;;;3.83;;
69358;SDS011;56520;49.066;8.660;2023-08-17T14:48:08;7.70;;;4.13;;
69358;SDS011;56520;49.066;8.660;2023-08-17T14:50:34;8.27;;;4.25;;
69358;SDS011;56520;49.066;8.660;2023-08-17T14:53:00;7.50;;;4.20;;
69358;SDS011;56520;49.066;8.660;2023-08-17T14:55:31;8.05;;;4.25;;
69358;SDS011;56520;49.066;8.660;2023-08-17T14:57:57;8.45;;;4.25;;
69358;SDS011;56520;49.066;8.660;2023-08-17T15:00:23;6.88;;;3.95;;
69358;SDS011;56520;49.066;8.660;2023-08-17T15:02:49;7.72;;;3.83;;